Skip Navigation Links
NOAA logo - Click to go to the NOAA homepage
NOAA's National Weather Service
Alaska Aviation Weather Unit
  NWS logo - Click to go to the NWS homepage
Left Navbar Graphic     21 AKDT = 05 GMT

   
NOAA is celebrating 200 years of science, service, and stewardship. Visit the NOAA 200th celebration Web site to learn more.
USA.gov is the U.S. Government's official Web portal to all Federal, state and local government Web resources and services.
Facebook
NWS on Facebook

Important Change Regarding the AAWU Web Presence

 

Over the last several months, the AAWU has been working to navigate its webpages to a nationally supported server. Security, as well as other needs, have necessitated the change.  In the process, we have made an effort to enhance the functionality of our website, as well as some of our products. As of June 27, 2017, aawu.arh.noaa.gov will be discontinued. The new AAWU web address is weather.gov/aawu. It is now live and will run in-parallel with the old site until it is discontinued. Please send any feedback or questions regarding the new webpages to nws.ar.aawu.webauthors@noaa.gov.  Thank you for your patience during this time of transition.
AAWU Home :: Display TAF Add Bookmark
TAF CYDQ 250038Z 2501/2505 11005KT P6SM FEW080 BKN220
    FM250400 13006KT P6SM SCT080 BKN150 OVC200
    RMK FCST BASED ON AUTO OBS. NXT FCST WILL BE ISSUED AT 251245Z=

METAR CYDQ 242300Z AUTO 07005KT 9SM CLR 22/07 A3023 RMK SLP251 DENSITY ALT 3100FT= METAR CYDQ 250000Z AUTO 09005KT 050V110 9SM CLR 23/08 A3021 RMK SLP244 DENSITY ALT 3200FT= METAR CYDQ 250100Z AUTO 13006KT 090V170 9SM SCT240 23/05 A3019 RMK SLP234 DENSITY ALT 3200FT= METAR CYDQ 250200Z AUTO 08004KT 9SM BKN200 BKN220 22/09 A3017 RMK SLP228 DENSITY ALT 3100FT= CYDQ 250224Z AUTO 09006KT 4SM HZ BKN200 21/10 A3017 RMK SLP228 DENSITY ALT 3000FT= CYDQ 250231Z AUTO 09007KT 6SM HZ SCT190 20/09 A3017 RMK SLP228 DENSITY ALT 2900FT= METAR CYDQ 250300Z AUTO 11004KT 9SM BKN170 BKN190 21/10 A3016 RMK SLP223 DENSITY ALT 3000FT= METAR CYDQ 250400Z AUTO 14006KT 9SM BKN150 BKN170 BKN190 20/07 A3016 RMK SLP219 DENSITY ALT 2900FT= METAR CYDQ 250500Z AUTO 11006KT 9SM SCT120 OVC140 18/09 A3015 RMK SLP219 DENSITY ALT 2600FT=
 Alaska TAF Map

NOAA's National Weather Service
Alaska Aviation Weather Unit
6930 Sand Lake Road
Anchorage, AK 99502-1845
Disclaimer
Credits
Glossary
Privacy Policy
About Us
Career Opportunities
Contact AAWU Internet Services Site last modified: April, 17th 2012